Airfield :
LOGIN :

Register | Disclaimer

   EN    FR    IT 

 










Legend :    VFR   Marginal VFR   IFR   Intensive IFR   Very Intensive IFR
Visi :
Ceiling :
>= 8 km
>= 3000ft
5 to 8 km
1000 to 3000 ft
1500m to 5 km
500 to 1000 ft
800 to 1500m
200 to 500 ft
< 800m
< 200 ft
Symbols :   Thunderstorms  Fog  Heavy snow  Heavy precipitations  Wind > 20 kt
SIGMETs :     Misc.  Thunderstorms  Icing  Turbulence  Mountain Waves  Volcanic Ashes






- Airport Elevation : 102 ft
- IATA code : EXT


EGTE - Exeter

CURRENT METAR :
  • 191520Z 16008KT 9999 FEW022 10/07 Q1012

EXPIRED METARs :
  • 191450Z 17009KT 9999 FEW020 10/07 Q1012
  • 191420Z 17010KT 9999 FEW025 10/07 Q1012
  • 191350Z 17011KT 9999 FEW025 11/08 Q1012
  • 191320Z 17012KT 9999 FEW020 10/07 Q1013

TAF TAF EGTE
Valid from the 19 at 15:00 until the 20 at 00:00 UTC


191403Z 1915/1924 18012KT 9999 SCT020



MET'MAP, your aeronautical weather chart ! - Copyright ORBIFLY December 2007 - Disclaimer

ORBIFLY MET'MAP TEAM :

Programming & Development : Alexandra Zaïnal
Concept & Development : Baudouin d'Aumeries
Co-Development & Prog : Marc-Olivier Méhu
Technical & hardware support : Manuel Goepfert

Contact : metmap@orbifly.com




SOURCES & CREDITS :

   NOAA